Time;durP1;ratioP1;P1;durP2;ratioP2;P2;SDS_P1;SDS_P2;PMS_P1;PMS_P2;Temp;Humidity;BMP_temperature;BMP_pressure;BME280_temperature;BME280_humidity;BME280_pressure;Samples;Min_cycle;Max_cycle;Signal;HPM_P1;HPM_P2
2022/09/11 00:01:31;;;;;;;2.50;2.30;;;20.70;64.70;21.70;100788.00;;;;5052571;28;20194;-39
2022/09/11 00:03:57;;;;;;;3.60;2.60;;;20.70;64.70;21.70;100787.00;;;;5052756;28;20568;-39
2022/09/11 00:06:23;;;;;;;2.70;2.50;;;20.70;64.70;21.70;100771.00;;;;5052710;28;20174;-39
2022/09/11 00:08:59;;;;;;;2.70;2.50;;;20.70;64.70;21.70;100785.00;;;;5052027;28;20191;-39
2022/09/11 00:11:29;;;;;;;2.60;2.40;;;20.60;64.70;21.60;100785.00;;;;5052744;28;20224;-39
2022/09/11 00:13:55;;;;;;;2.70;2.50;;;20.60;64.70;21.70;100797.00;;;;5051294;28;20696;-40
2022/09/11 00:16:26;;;;;;;2.50;2.30;;;20.60;64.70;21.70;100792.00;;;;5051069;28;20358;-39
2022/09/11 00:18:53;;;;;;;2.50;2.30;;;20.70;64.70;21.70;100796.00;;;;5051186;28;20177;-40
2022/09/11 00:21:19;;;;;;;2.57;2.37;;;20.60;64.70;21.60;100790.00;;;;5052458;28;20196;-39
2022/09/11 00:23:49;;;;;;;2.63;2.40;;;20.70;64.70;21.60;100794.00;;;;5052014;28;20287;-39
2022/09/11 00:26:16;;;;;;;2.70;2.50;;;20.60;64.70;21.60;100801.00;;;;5052151;28;20180;-39
2022/09/11 00:28:42;;;;;;;2.33;2.20;;;20.70;64.90;21.60;100801.00;;;;5050648;28;20234;-39
2022/09/11 00:31:12;;;;;;;2.67;2.47;;;20.60;64.70;21.60;100796.00;;;;5052034;28;20197;-39
2022/09/11 00:33:38;;;;;;;2.37;2.20;;;20.70;64.70;21.60;100814.00;;;;5052211;28;20177;-40
2022/09/11 00:36:28;;;;;;;2.60;2.40;;;20.60;64.60;21.60;100806.00;;;;5055101;28;20353;-41
2022/09/11 00:38:54;;;;;;;2.50;2.30;;;20.60;64.70;21.60;100793.00;;;;5046437;28;20225;-41
2022/09/11 00:41:25;;;;;;;2.90;2.60;;;20.60;64.70;21.60;100798.00;;;;5052229;28;20190;-40
2022/09/11 00:44:05;;;;;;;2.70;2.50;;;20.60;64.70;21.60;100795.00;;;;5049921;28;20579;-39
2022/09/11 00:46:49;;;;;;;2.57;2.37;;;20.60;64.80;21.60;100796.00;;;;5048256;28;20201;-40
2022/09/11 00:49:29;;;;;;;2.53;2.33;;;20.70;65.00;21.60;100797.00;;;;5049453;28;20564;-40
2022/09/11 00:52:09;;;;;;;2.80;2.60;;;20.60;64.80;21.60;100804.00;;;;5048711;28;20197;-40
2022/09/11 00:54:43;;;;;;;2.70;2.50;;;20.60;64.80;21.60;100804.00;;;;5047335;28;20183;-41
2022/09/11 00:57:09;;;;;;;2.60;2.40;;;20.60;64.70;21.50;100804.00;;;;5047301;28;20167;-39
2022/09/11 00:59:34;;;;;;;2.63;2.43;;;20.60;64.90;21.50;100797.00;;;;5048224;28;20211;-39
2022/09/11 01:02:00;;;;;;;2.77;2.40;;;20.60;64.80;21.50;100806.00;;;;5047261;28;20231;-40
2022/09/11 01:04:28;;;;;;;2.57;2.40;;;20.60;64.90;21.50;100813.00;;;;5049557;28;20186;-39
2022/09/11 01:06:55;;;;;;;2.67;2.40;;;20.60;64.80;21.50;100811.00;;;;5048403;28;20184;-40
2022/09/11 01:09:27;;;;;;;2.87;2.67;;;20.60;64.70;21.50;100818.00;;;;5046927;28;20217;-40
2022/09/11 01:12:06;;;;;;;2.70;2.50;;;20.60;64.90;21.50;100827.00;;;;5047002;28;20280;-40
2022/09/11 01:14:52;;;;;;;2.63;2.43;;;20.60;64.90;21.50;100823.00;;;;5047817;28;20225;-39
2022/09/11 01:17:34;;;;;;;2.70;2.50;;;20.60;64.80;21.50;100820.00;;;;5049069;28;20530;-39
2022/09/11 01:20:17;;;;;;;2.80;2.57;;;20.60;64.90;21.50;100822.00;;;;5047022;28;20253;-40
2022/09/11 01:23:08;;;;;;;2.50;2.30;;;20.60;64.80;21.50;100822.00;;;;5048441;28;20441;-38
2022/09/11 01:26:15;;;;;;;2.50;2.30;;;20.50;64.70;21.50;100826.00;;;;5047000;28;20252;-39
2022/09/11 01:28:49;;;;;;;2.70;2.50;;;20.60;64.80;21.50;100800.00;;;;5046020;28;20512;-39
2022/09/11 01:31:19;;;;;;;2.70;2.33;;;20.60;64.80;21.50;100824.00;;;;5046990;28;20674;-40
2022/09/11 01:33:58;;;;;;;2.30;2.20;;;20.50;64.80;21.50;100830.00;;;;5046827;28;20181;-40
2022/09/11 01:36:33;;;;;;;2.50;2.30;;;20.50;64.80;21.50;100829.00;;;;5048144;28;20163;-40
2022/09/11 01:39:01;;;;;;;2.40;2.20;;;20.60;64.90;21.50;100837.00;;;;5046784;28;20358;-41
2022/09/11 01:41:52;;;;;;;2.60;2.40;;;20.50;64.90;21.50;100833.00;;;;5046730;28;20206;-41
2022/09/11 01:44:31;;;;;;;2.60;2.40;;;20.50;64.70;21.50;100835.00;;;;5046456;28;20185;-41
2022/09/11 01:46:56;;;;;;;2.83;2.40;;;20.50;64.70;21.50;100833.00;;;;5031974;28;20175;-40
2022/09/11 01:49:34;;;;;;;2.70;2.50;;;20.50;64.90;21.50;100844.00;;;;5046285;28;20293;-39
2022/09/11 01:52:02;;;;;;;2.70;2.50;;;20.50;64.90;21.50;100851.00;;;;5047230;28;20197;-40
2022/09/11 01:54:50;;;;;;;2.67;2.47;;;20.50;64.80;21.50;100855.00;;;;5046531;28;20617;-40
2022/09/11 01:57:46;;;;;;;2.80;2.60;;;20.50;64.90;21.40;100854.00;;;;5040369;28;20203;-39
2022/09/11 02:00:12;;;;;;;2.83;2.57;;;20.50;64.80;21.40;100858.00;;;;5062382;28;20166;-40
2022/09/11 02:02:43;;;;;;;2.60;2.40;;;20.50;64.80;21.40;100855.00;;;;5031948;28;20171;-39
2022/09/11 02:05:19;;;;;;;3.20;2.60;;;20.50;64.70;21.40;100861.00;;;;5046570;28;20548;-39
2022/09/11 02:08:04;;;;;;;2.70;2.50;;;20.50;64.90;21.40;100857.00;;;;5046963;28;20187;-39
2022/09/11 02:10:35;;;;;;;2.93;2.73;;;20.50;64.80;21.40;100852.00;;;;5045953;28;20200;-40
2022/09/11 02:13:24;;;;;;;2.93;2.60;;;20.50;64.80;21.40;100859.00;;;;5046337;28;20170;-40
2022/09/11 02:15:54;;;;;;;2.70;2.50;;;20.50;64.80;21.40;100861.00;;;;5045865;28;20174;-40
2022/09/11 02:18:50;;;;;;;2.90;2.40;;;20.50;64.70;21.40;100865.00;;;;5045778;28;20162;-40
2022/09/11 02:21:15;;;;;;;2.63;2.43;;;20.50;64.70;21.40;100869.00;;;;5038674;28;20207;-40
2022/09/11 02:23:41;;;;;;;2.73;2.50;;;20.50;64.80;21.40;100876.00;;;;5047195;28;20223;-40
2022/09/11 02:26:07;;;;;;;2.90;2.70;;;20.50;64.80;21.40;100858.00;;;;5045980;28;20178;-40
2022/09/11 02:28:32;;;;;;;2.50;2.30;;;20.50;64.80;21.40;100862.00;;;;5045443;28;20684;-40
2022/09/11 02:30:58;;;;;;;2.73;2.53;;;20.40;64.60;21.40;100862.00;;;;5047139;28;20189;-39
2022/09/11 02:33:35;;;;;;;2.67;2.47;;;20.50;64.80;21.40;100864.00;;;;5046949;28;20177;-40
2022/09/11 02:36:28;;;;;;;2.97;2.77;;;20.40;64.80;21.40;100861.00;;;;5046881;28;20171;-40
2022/09/11 02:39:03;;;;;;;2.80;2.60;;;20.40;64.70;21.40;100869.00;;;;5046775;28;20167;-40
2022/09/11 02:41:50;;;;;;;3.20;2.80;;;20.40;64.80;21.40;100867.00;;;;5045079;28;20200;-40
2022/09/11 02:44:31;;;;;;;3.20;2.73;;;20.40;64.70;21.40;100858.00;;;;5045218;28;20160;-40
2022/09/11 02:47:04;;;;;;;2.77;2.57;;;20.40;64.80;21.40;100879.00;;;;5029229;28;20190;-40
2022/09/11 02:49:53;;;;;;;2.70;2.50;;;20.40;64.80;21.40;100876.00;;;;5045413;28;20194;-41
2022/09/11 02:52:51;;;;;;;2.90;2.70;;;20.40;64.80;21.40;100871.00;;;;5046071;28;20249;-41
2022/09/11 02:55:25;;;;;;;3.10;2.80;;;20.40;64.70;21.30;100875.00;;;;5044290;28;20665;-41
2022/09/11 02:58:01;;;;;;;3.10;2.90;;;20.40;64.70;21.30;100860.00;;;;5054840;28;20197;-38
2022/09/11 03:00:27;;;;;;;3.57;2.90;;;20.40;64.70;21.30;100877.00;;;;5045680;28;20208;-40
2022/09/11 03:02:52;;;;;;;3.00;2.80;;;20.40;64.70;21.30;100888.00;;;;5044937;28;20206;-40
2022/09/11 03:05:18;;;;;;;2.90;2.70;;;20.40;64.70;21.30;100878.00;;;;5046417;28;20174;-39
2022/09/11 03:07:44;;;;;;;3.17;2.93;;;20.40;64.70;21.30;100883.00;;;;5043830;28;20178;-40
2022/09/11 03:10:10;;;;;;;3.30;3.10;;;20.40;64.80;21.30;100881.00;;;;5045506;28;20186;-39
2022/09/11 03:12:37;;;;;;;3.20;2.90;;;20.40;64.80;21.40;100878.00;;;;5044865;28;20260;-40
2022/09/11 03:15:04;;;;;;;3.17;2.97;;;20.40;64.70;21.40;100878.00;;;;5044890;28;20177;-39
2022/09/11 03:17:31;;;;;;;3.10;2.90;;;20.40;64.70;21.40;100883.00;;;;5046293;28;20592;-40
2022/09/11 03:19:57;;;;;;;3.80;3.40;;;20.40;64.70;21.40;100891.00;;;;5045766;28;20181;-40
2022/09/11 03:22:23;;;;;;;3.20;3.00;;;20.40;64.70;21.40;100895.00;;;;5044312;28;20205;-39
2022/09/11 03:24:48;;;;;;;4.47;3.20;;;20.40;64.80;21.40;100894.00;;;;5045910;28;20162;-40
2022/09/11 03:27:14;;;;;;;3.60;3.30;;;20.40;64.80;21.40;100891.00;;;;5044333;28;20592;-40
2022/09/11 03:29:40;;;;;;;3.37;3.17;;;20.40;64.80;21.40;100890.00;;;;5045310;28;20193;-40
2022/09/11 03:32:06;;;;;;;4.10;3.13;;;20.40;64.70;21.40;100885.00;;;;5043628;28;20201;-39
2022/09/11 03:34:32;;;;;;;3.83;3.50;;;20.40;64.70;21.40;100890.00;;;;5043504;28;20188;-40
2022/09/11 03:36:59;;;;;;;3.83;3.43;;;20.40;64.80;21.30;100887.00;;;;5044860;28;20235;-41
2022/09/11 03:39:24;;;;;;;5.17;3.50;;;20.40;65.40;21.40;100894.00;;;;5046646;28;20466;-40
2022/09/11 03:41:50;;;;;;;5.90;3.50;;;20.40;64.90;21.40;100890.00;;;;5044753;28;20194;-39
2022/09/11 03:44:16;;;;;;;5.17;3.90;;;20.40;64.90;21.40;100892.00;;;;5047678;28;20301;-40
2022/09/11 03:46:42;;;;;;;4.67;3.57;;;20.40;64.80;21.40;100902.00;;;;5046982;28;20642;-40
2022/09/11 03:49:08;;;;;;;6.90;4.10;;;20.40;64.90;21.40;100896.00;;;;5044518;28;20243;-40
2022/09/11 03:51:34;;;;;;;5.90;3.60;;;20.40;65.10;21.40;100900.00;;;;5045910;28;20258;-40
2022/09/11 03:54:00;;;;;;;5.53;3.80;;;20.40;64.90;21.40;100909.00;;;;5046267;28;20169;-41
2022/09/11 03:56:27;;;;;;;7.70;3.90;;;20.40;65.00;21.40;100905.00;;;;5045963;28;20182;-41
2022/09/11 03:58:57;;;;;;;4.37;3.67;;;20.40;65.00;21.40;100901.00;;;;5045618;28;20691;-40
2022/09/11 04:01:23;;;;;;;8.93;4.00;;;20.40;65.00;21.40;100901.00;;;;5046181;28;20222;-40
2022/09/11 04:03:49;;;;;;;5.90;4.03;;;20.40;65.10;21.40;100905.00;;;;5046068;28;20207;-40
2022/09/11 04:06:15;;;;;;;7.53;3.83;;;20.40;65.00;21.40;100906.00;;;;5046049;28;20601;-40
2022/09/11 04:08:41;;;;;;;9.87;4.43;;;20.40;65.10;21.40;100902.00;;;;5045650;28;20210;-40
2022/09/11 04:11:07;;;;;;;6.17;4.10;;;20.40;65.10;21.40;100902.00;;;;5045666;28;20287;-41
2022/09/11 04:13:34;;;;;;;10.60;4.50;;;20.40;65.10;21.40;100904.00;;;;5046172;28;20251;-40
2022/09/11 04:16:02;;;;;;;8.63;4.60;;;20.40;65.00;21.40;100908.00;;;;5050241;28;20467;-40
2022/09/11 04:18:29;;;;;;;8.90;4.50;;;20.40;65.00;21.40;100915.00;;;;5057501;28;20239;-40
2022/09/11 04:20:55;;;;;;;11.53;4.73;;;20.40;65.00;21.40;100912.00;;;;5068844;28;20208;-41
2022/09/11 04:23:21;;;;;;;9.97;5.03;;;20.40;65.00;21.40;100918.00;;;;5069157;28;20174;-40
2022/09/11 04:25:47;;;;;;;6.97;4.87;;;20.40;64.90;21.40;100914.00;;;;5068887;28;20611;-39
2022/09/11 04:28:13;;;;;;;4.97;4.50;;;20.40;65.00;21.40;100913.00;;;;5067706;28;20208;-40
2022/09/11 04:30:39;;;;;;;8.63;5.20;;;20.30;64.80;21.40;100915.00;;;;5068082;28;20731;-41
2022/09/11 04:33:05;;;;;;;8.37;5.00;;;20.40;65.80;21.40;100920.00;;;;5068866;28;20616;-42
2022/09/11 04:35:31;;;;;;;10.87;5.23;;;20.30;65.40;21.40;100922.00;;;;5069523;28;20546;-41
2022/09/11 04:37:57;;;;;;;9.33;4.80;;;20.30;65.40;21.40;100878.00;;;;5068548;28;20181;-41
2022/09/11 04:40:23;;;;;;;12.10;5.53;;;20.30;65.60;21.40;100781.00;;;;5063438;28;20205;-40
2022/09/11 04:42:49;;;;;;;8.97;5.50;;;20.40;65.80;21.20;100876.00;;;;5082219;28;20263;-41
2022/09/11 04:45:15;;;;;;;16.83;5.80;;;20.40;65.60;21.40;100918.00;;;;5090169;28;20178;-42
2022/09/11 04:47:40;;;;;;;15.40;5.70;;;20.40;66.60;21.40;100919.00;;;;5089556;28;20214;-41
2022/09/11 04:50:07;;;;;;;11.07;5.60;;;20.30;65.80;21.40;100923.00;;;;5089814;28;20228;-40
2022/09/11 04:52:33;;;;;;;9.57;5.60;;;20.40;66.00;21.40;100926.00;;;;5089150;28;20779;-40
2022/09/11 04:54:58;;;;;;;11.50;6.17;;;20.40;66.10;21.40;100927.00;;;;5089170;28;20181;-41
2022/09/11 04:57:25;;;;;;;13.63;5.80;;;20.40;66.10;21.40;100934.00;;;;5089243;28;20226;-39
2022/09/11 04:59:51;;;;;;;13.30;5.50;;;20.30;67.00;21.40;100935.00;;;;5071975;28;20323;-41
2022/09/11 05:02:17;;;;;;;12.50;5.90;;;20.30;66.40;21.40;100931.00;;;;5067099;28;20379;-41
2022/09/11 05:04:43;;;;;;;14.73;6.57;;;20.40;66.40;21.40;100936.00;;;;5070845;28;20505;-40
2022/09/11 05:07:13;;;;;;;22.77;6.80;;;20.40;66.50;21.40;100933.00;;;;5070599;28;20179;-39
2022/09/11 05:09:39;;;;;;;18.60;6.60;;;20.40;66.50;21.40;100927.00;;;;5070250;28;20228;-39
2022/09/11 05:12:04;;;;;;;18.47;7.10;;;20.40;66.60;21.40;100933.00;;;;5070388;28;20192;-40
2022/09/11 05:14:34;;;;;;;17.13;7.50;;;20.40;66.50;21.40;100935.00;;;;5070631;28;20208;-40
2022/09/11 05:17:00;;;;;;;15.73;7.17;;;20.40;67.30;21.40;100951.00;;;;5070426;28;20165;-41
2022/09/11 05:19:26;;;;;;;16.23;7.00;;;20.40;66.40;21.40;100947.00;;;;5070558;28;20263;-41
2022/09/11 05:21:51;;;;;;;16.13;7.07;;;20.40;66.40;21.40;100945.00;;;;5068815;28;20277;-41
2022/09/11 05:24:17;;;;;;;18.27;7.43;;;20.40;66.20;21.40;100950.00;;;;5070156;28;20192;-41
2022/09/11 05:26:43;;;;;;;14.07;7.00;;;20.40;66.30;21.40;100958.00;;;;5070537;28;20183;-40
2022/09/11 05:29:13;;;;;;;16.23;7.30;;;20.40;66.20;21.40;100959.00;;;;5069020;28;20552;-41
2022/09/11 05:31:39;;;;;;;16.10;7.70;;;20.40;66.20;21.40;100946.00;;;;5069500;28;20237;-41
2022/09/11 05:34:05;;;;;;;20.00;7.97;;;20.40;66.20;21.40;100951.00;;;;5079894;28;20175;-42
2022/09/11 05:36:32;;;;;;;12.50;7.13;;;20.40;66.20;21.40;100964.00;;;;5090164;28;20172;-41
2022/09/11 05:38:58;;;;;;;12.60;7.57;;;20.40;66.10;21.40;100965.00;;;;5099858;28;20173;-41
2022/09/11 05:41:23;;;;;;;10.97;6.70;;;20.40;66.00;21.40;100966.00;;;;5070452;28;20197;-41
2022/09/11 05:43:50;;;;;;;14.70;7.27;;;20.40;66.10;21.40;100980.00;;;;5070080;28;20207;-40
2022/09/11 05:46:17;;;;;;;18.50;7.63;;;20.40;66.90;21.40;100979.00;;;;5070073;28;20185;-40
2022/09/11 05:48:43;;;;;;;11.67;7.43;;;20.50;66.20;21.40;100964.00;;;;5069617;28;20193;-40
2022/09/11 05:51:18;;;;;;;11.93;7.60;;;20.40;66.00;21.40;100978.00;;;;5068971;28;20556;-40
2022/09/11 05:53:44;;;;;;;11.87;7.67;;;20.40;66.80;21.40;100975.00;;;;5069191;28;20201;-41
2022/09/11 05:56:18;;;;;;;15.97;9.10;;;20.40;66.10;21.40;100986.00;;;;5069963;28;20169;-39
2022/09/11 05:58:45;;;;;;;13.93;8.40;;;20.40;66.20;21.40;100991.00;;;;5069444;28;20177;-39
2022/09/11 06:01:15;;;;;;;12.83;8.73;;;20.40;66.60;21.40;100987.00;;;;5069222;28;20243;-39
2022/09/11 06:03:41;;;;;;;14.23;8.80;;;20.40;66.40;21.40;100994.00;;;;5069133;28;20706;-40
2022/09/11 06:06:09;;;;;;;11.67;9.10;;;20.40;66.60;21.40;100995.00;;;;5070280;28;20212;-39
2022/09/11 06:08:35;;;;;;;14.87;9.00;;;20.40;66.70;21.40;100990.00;;;;5069346;28;20201;-39
2022/09/11 06:11:01;;;;;;;14.47;9.30;;;20.40;66.60;21.40;100997.00;;;;5051515;28;20201;-40
2022/09/11 06:13:32;;;;;;;12.70;9.13;;;20.40;66.70;21.40;100991.00;;;;5067901;28;20175;-40
2022/09/11 06:15:58;;;;;;;15.73;10.33;;;20.40;66.80;21.40;101006.00;;;;5069382;28;20204;-40
2022/09/11 06:18:24;;;;;;;15.30;10.10;;;20.40;66.70;21.40;101005.00;;;;5068960;28;20172;-40
2022/09/11 06:21:01;;;;;;;13.67;10.17;;;20.40;67.60;21.40;101004.00;;;;5068788;28;20196;-40
2022/09/11 06:23:26;;;;;;;15.87;10.27;;;20.40;67.10;21.40;101014.00;;;;5068630;28;20190;-40
2022/09/11 06:25:55;;;;;;;15.10;10.70;;;20.40;67.10;21.40;101012.00;;;;5068811;28;20266;-39
2022/09/11 06:28:22;;;;;;;22.93;11.77;;;20.40;67.10;21.40;101016.00;;;;5068820;28;20233;-39
2022/09/11 06:30:50;;;;;;;21.53;10.40;;;20.40;67.00;21.40;101018.00;;;;5068360;28;20692;-39
2022/09/11 06:33:19;;;;;;;19.63;10.53;;;20.40;67.00;21.40;101020.00;;;;5068479;28;20184;-40
2022/09/11 06:36:00;;;;;;;17.33;11.23;;;20.40;67.10;21.20;101017.00;;;;5068451;28;20153;-41
2022/09/11 06:38:28;;;;;;;18.00;11.47;;;20.40;67.10;21.40;101020.00;;;;5004783;28;20660;-39
2022/09/11 06:40:54;;;;;;;17.00;11.47;;;20.40;67.10;21.40;101019.00;;;;5073232;28;20208;-40
2022/09/11 06:43:20;;;;;;;18.57;12.23;;;20.40;67.10;21.40;101022.00;;;;5070211;28;20624;-40
2022/09/11 06:45:47;;;;;;;14.83;12.17;;;20.40;67.10;21.40;101030.00;;;;5067961;28;20283;-40
2022/09/11 06:48:14;;;;;;;15.63;12.50;;;20.40;67.10;21.40;101026.00;;;;5068501;28;20200;-40
2022/09/11 06:50:40;;;;;;;16.47;11.77;;;20.40;67.10;21.40;101028.00;;;;5068316;28;20192;-41
2022/09/11 06:53:07;;;;;;;18.80;11.83;;;20.40;67.10;21.40;101029.00;;;;5069623;28;20168;-40
2022/09/11 06:55:33;;;;;;;16.30;11.70;;;20.40;67.10;21.40;101029.00;;;;5069041;28;20203;-40
2022/09/11 06:57:59;;;;;;;16.53;12.23;;;20.40;67.00;21.40;101035.00;;;;5069241;28;20221;-41
2022/09/11 07:00:25;;;;;;;15.90;12.17;;;20.40;67.00;21.40;101032.00;;;;5068775;28;20178;-41
2022/09/11 07:02:55;;;;;;;14.97;12.00;;;20.40;66.90;21.40;101031.00;;;;5068389;28;20188;-41
2022/09/11 07:05:21;;;;;;;17.47;12.83;;;20.30;66.80;21.40;101028.00;;;;5068056;28;20208;-43
2022/09/11 07:07:56;;;;;;;18.13;13.33;;;20.30;66.70;21.40;101017.00;;;;5069267;28;20183;-42
2022/09/11 07:10:22;;;;;;;16.77;13.13;;;20.40;66.80;21.40;101029.00;;;;5068486;28;20186;-40
2022/09/11 07:12:48;;;;;;;18.07;12.73;;;20.30;66.70;21.40;101041.00;;;;5068984;28;20173;-41
2022/09/11 07:15:14;;;;;;;16.83;13.23;;;20.40;66.80;21.40;101037.00;;;;5068310;28;20167;-40
2022/09/11 07:17:39;;;;;;;15.73;12.47;;;20.40;66.80;21.40;101036.00;;;;5068264;28;20174;-40
2022/09/11 07:20:08;;;;;;;15.77;13.17;;;20.30;66.60;21.40;101043.00;;;;5068329;28;20172;-41
2022/09/11 07:22:35;;;;;;;16.53;13.20;;;20.40;66.70;21.30;101035.00;;;;5066989;28;20196;-41
2022/09/11 07:25:00;;;;;;;16.83;13.83;;;20.40;66.80;21.40;101050.00;;;;5068845;28;20220;-39
2022/09/11 07:27:27;;;;;;;16.07;13.00;;;20.30;66.60;21.40;101043.00;;;;5067663;28;20642;-40
2022/09/11 07:29:53;;;;;;;15.67;13.13;;;20.30;66.70;21.30;101051.00;;;;5066781;28;20299;-40
2022/09/11 07:32:19;;;;;;;17.10;13.20;;;20.40;66.80;21.30;101048.00;;;;5068146;28;20314;-40
2022/09/11 07:34:46;;;;;;;16.30;13.13;;;20.30;66.90;21.30;101045.00;;;;5066906;28;20207;-40
2022/09/11 07:37:13;;;;;;;15.30;12.67;;;20.30;66.80;21.10;101008.00;;;;5051329;28;20176;-42
2022/09/11 07:39:39;;;;;;;16.87;12.73;;;20.30;66.40;21.30;101055.00;;;;5026345;28;20177;-40
2022/09/11 07:42:08;;;;;;;15.43;13.70;;;20.30;66.60;21.30;101060.00;;;;5068306;28;20202;-39
2022/09/11 07:44:34;;;;;;;17.90;14.10;;;20.30;67.40;21.30;101057.00;;;;5067974;28;20651;-40
2022/09/11 07:47:00;;;;;;;15.33;13.57;;;20.30;66.60;21.30;101061.00;;;;5067857;28;20274;-40
2022/09/11 07:49:26;;;;;;;16.37;12.97;;;20.30;66.90;21.30;101060.00;;;;5068324;28;20669;-40
2022/09/11 07:51:53;;;;;;;16.90;13.20;;;20.30;66.90;21.30;101060.00;;;;5067478;28;20256;-40
2022/09/11 07:54:20;;;;;;;16.73;13.53;;;20.40;66.90;21.30;101060.00;;;;5069670;28;20168;-41
2022/09/11 07:56:46;;;;;;;17.70;13.43;;;20.30;66.90;21.30;101060.00;;;;5071829;28;20185;-40
2022/09/11 07:59:12;;;;;;;14.53;12.57;;;20.30;66.80;21.30;101069.00;;;;5071926;28;20205;-39
2022/09/11 08:01:38;;;;;;;16.17;13.43;;;20.40;66.90;21.30;101066.00;;;;5076615;28;20573;-39
2022/09/11 08:04:05;;;;;;;16.30;13.47;;;20.30;66.70;21.30;101068.00;;;;5092450;28;20250;-40
2022/09/11 08:06:34;;;;;;;14.10;12.70;;;20.30;66.70;21.30;101073.00;;;;5092125;28;20196;-40
2022/09/11 08:09:08;;;;;;;16.27;13.57;;;20.30;66.60;21.30;101071.00;;;;5091670;28;20567;-40
2022/09/11 08:11:44;;;;;;;14.47;12.97;;;20.30;66.60;21.30;101073.00;;;;5090268;28;20677;-40
2022/09/11 08:14:12;;;;;;;15.90;12.40;;;20.30;66.60;21.30;101067.00;;;;5090914;28;20649;-41
2022/09/11 08:16:38;;;;;;;17.60;12.67;;;20.30;66.60;21.30;101072.00;;;;5091059;28;20239;-40
2022/09/11 08:19:04;;;;;;;14.73;12.83;;;20.30;66.80;21.30;101081.00;;;;5090729;28;20175;-40
2022/09/11 08:21:30;;;;;;;17.27;12.73;;;20.30;67.00;21.30;101078.00;;;;5092172;28;20207;-43
2022/09/11 08:23:56;;;;;;;22.40;13.30;;;20.30;67.00;21.30;101085.00;;;;5076209;28;20177;-39
2022/09/11 08:26:24;;;;;;;17.40;13.37;;;20.40;67.40;21.30;101087.00;;;;5071490;28;20807;-39
2022/09/11 08:28:51;;;;;;;17.67;12.53;;;20.40;67.70;21.30;101099.00;;;;5071767;28;20199;-40
2022/09/11 08:31:19;;;;;;;17.27;12.57;;;20.40;67.80;21.30;101095.00;;;;5071682;28;20178;-40
2022/09/11 08:33:44;;;;;;;23.40;13.03;;;20.50;68.60;21.40;101104.00;;;;5053733;28;20257;-41
2022/09/11 08:36:12;;;;;;;17.37;13.13;;;20.50;68.50;21.40;101117.00;;;;5071930;28;20259;-41
2022/09/11 08:38:38;;;;;;;19.43;12.70;;;20.50;68.40;21.40;101123.00;;;;5071063;28;20233;-41
2022/09/11 08:41:23;;;;;;;21.37;12.80;;;20.50;68.00;21.40;101119.00;;;;5071483;28;20194;-42
2022/09/11 08:43:55;;;;;;;14.17;11.97;;;20.50;68.40;21.40;101128.00;;;;5055990;28;20163;-41
2022/09/11 08:46:23;;;;;;;15.70;12.30;;;20.50;68.10;21.40;101121.00;;;;5071828;28;20171;-41
2022/09/11 08:49:17;;;;;;;21.50;12.60;;;20.60;68.00;21.40;101126.00;;;;5053744;28;20201;-41
2022/09/11 08:51:45;;;;;;;20.27;13.57;;;20.60;68.80;21.40;101133.00;;;;5025378;28;20669;-41
2022/09/11 08:54:40;;;;;;;20.13;12.30;;;20.60;68.90;21.40;101132.00;;;;5071511;28;20200;-42
2022/09/11 08:57:33;;;;;;;18.23;12.90;;;20.60;69.40;21.40;101137.00;;;;5054292;28;20732;-41
2022/09/11 09:00:20;;;;;;;18.13;12.53;;;20.60;70.50;21.40;101138.00;;;;5070230;28;20167;-42
2022/09/11 09:03:17;;;;;;;21.70;12.70;;;20.60;70.20;21.40;101131.00;;;;5072016;28;20202;-41
2022/09/11 09:06:20;;;;;;;20.07;12.60;;;20.60;69.90;21.40;101146.00;;;;5070003;28;20159;-40
2022/09/11 09:09:10;;;;;;;21.20;12.17;;;20.60;69.20;21.50;101141.00;;;;5071233;28;20218;-40
2022/09/11 09:11:55;;;;;;;15.70;11.87;;;20.60;69.10;21.40;101135.00;;;;5076840;28;20200;-40
2022/09/11 09:15:19;;;;;;;14.83;11.73;;;20.60;68.90;21.50;101143.00;;;;5089444;28;20157;-41
2022/09/11 09:17:59;;;;;;;15.87;11.73;;;20.50;68.80;21.50;101142.00;;;;5080532;28;20826;-40
2022/09/11 09:21:12;;;;;;;14.40;11.80;;;20.50;68.80;21.50;101144.00;;;;5055308;28;20197;-40
2022/09/11 09:23:48;;;;;;;14.90;11.43;;;20.50;68.80;21.50;101146.00;;;;5083807;28;20189;-41
2022/09/11 09:26:17;;;;;;;16.20;11.87;;;20.50;68.80;21.50;101148.00;;;;5004000;28;20249;-40
2022/09/11 09:28:49;;;;;;;17.37;11.00;;;20.50;68.80;21.50;101149.00;;;;5073235;28;20199;-41
2022/09/11 09:31:19;;;;;;;15.07;11.20;;;20.50;68.80;21.50;101154.00;;;;5070401;28;20185;-39
2022/09/11 09:33:49;;;;;;;15.33;11.30;;;20.50;68.70;21.50;101158.00;;;;5069510;28;20649;-40
2022/09/11 09:36:23;;;;;;;16.87;11.23;;;20.50;68.60;21.50;101139.00;;;;5070505;28;20146;-40
2022/09/11 09:38:49;;;;;;;21.97;11.53;;;20.50;68.80;21.50;101154.00;;;;5053149;28;20566;-39
2022/09/11 09:41:42;;;;;;;21.20;11.73;;;20.50;69.80;21.50;101152.00;;;;5054314;28;20196;-40
2022/09/11 09:45:01;;;;;;;20.17;12.20;;;20.50;69.90;21.50;101160.00;;;;5072443;28;20268;-40
2022/09/11 09:47:28;;;;;;;21.83;12.13;;;20.50;70.00;21.50;101160.00;;;;5069115;28;20169;-38
2022/09/11 09:49:57;;;;;;;19.63;11.07;;;20.50;69.90;21.50;101162.00;;;;5070380;28;20376;-39
2022/09/11 09:52:25;;;;;;;22.93;11.77;;;20.50;69.80;21.50;101172.00;;;;5069401;28;20202;-40
2022/09/11 09:55:05;;;;;;;22.73;12.53;;;20.50;69.60;21.50;101161.00;;;;5069517;28;20590;-41
2022/09/11 09:57:34;;;;;;;18.93;11.73;;;20.50;69.90;21.50;101169.00;;;;5068890;28;20175;-41
2022/09/11 10:00:18;;;;;;;16.30;11.30;;;20.50;69.70;21.50;101168.00;;;;5070506;28;20186;-41
2022/09/11 10:02:54;;;;;;;19.73;11.43;;;20.50;69.60;21.50;101164.00;;;;5068989;28;20693;-41
2022/09/11 10:05:33;;;;;;;19.73;11.57;;;20.60;69.70;21.50;101164.00;;;;5069540;28;20162;-40
2022/09/11 10:08:18;;;;;;;16.67;11.40;;;20.50;69.40;21.50;101152.00;;;;5069744;28;20496;-41
2022/09/11 10:10:44;;;;;;;17.70;11.10;;;20.50;69.20;21.50;101160.00;;;;5062360;28;20665;-40
2022/09/11 10:13:17;;;;;;;17.33;12.00;;;20.50;69.20;21.50;101159.00;;;;5057742;28;20167;-41
2022/09/11 10:15:43;;;;;;;15.30;11.70;;;20.50;69.20;21.50;101161.00;;;;5068858;28;20165;-42
2022/09/11 10:18:28;;;;;;;15.13;11.57;;;20.50;69.00;21.50;101159.00;;;;5067981;28;20172;-42
2022/09/11 10:21:12;;;;;;;14.37;11.40;;;20.50;68.90;21.50;101161.00;;;;5069872;28;20196;-40
2022/09/11 10:24:21;;;;;;;16.73;11.20;;;20.50;68.70;21.50;101157.00;;;;5070158;28;20181;-41
2022/09/11 10:26:50;;;;;;;17.17;11.77;;;20.50;68.80;21.50;101165.00;;;;5068977;28;20202;-42
2022/09/11 10:29:25;;;;;;;14.07;10.73;;;20.50;68.60;21.50;101155.00;;;;5068440;28;20212;-41
2022/09/11 10:31:58;;;;;;;14.03;11.17;;;20.50;68.60;21.50;101157.00;;;;5068070;28;20238;-41
2022/09/11 10:34:25;;;;;;;14.10;11.23;;;20.50;68.50;21.50;101095.00;;;;5052232;28;20568;-41
2022/09/11 10:36:59;;;;;;;13.37;11.47;;;20.50;68.40;21.50;101167.00;;;;5052799;28;20530;-40
2022/09/11 10:39:25;;;;;;;11.93;10.70;;;20.50;68.40;21.50;101167.00;;;;5053130;28;20252;-40
2022/09/11 10:41:53;;;;;;;12.50;10.87;;;20.50;68.40;21.50;101162.00;;;;5051531;28;20199;-41
2022/09/11 10:44:20;;;;;;;12.23;10.60;;;20.50;68.20;21.50;101157.00;;;;5069872;28;20199;-40
2022/09/11 10:47:23;;;;;;;13.80;10.70;;;20.50;68.30;21.50;101162.00;;;;5051958;28;20244;-42
2022/09/11 10:49:49;;;;;;;11.37;10.17;;;20.50;68.20;21.50;101154.00;;;;5015367;28;20204;-40
2022/09/11 10:52:18;;;;;;;11.87;10.67;;;20.50;68.20;21.50;101160.00;;;;5055584;28;20724;-40
2022/09/11 10:55:05;;;;;;;13.70;9.83;;;20.50;68.10;21.50;101151.00;;;;5069674;28;20175;-41
2022/09/11 10:57:37;;;;;;;12.83;10.37;;;20.50;68.90;21.50;101149.00;;;;5068273;28;20193;-40
2022/09/11 11:00:07;;;;;;;12.53;10.87;;;20.50;68.00;21.50;101154.00;;;;5068304;28;20484;-41